15:18
Airports
History
Links
Donate
Help keep this website running!
PayPal
Bitcoin
This page is community maintained. The information is intended for PC simulator navigation or reference.
Always use approved charts for navigation.
EDQN
Neustadt Aisch
Neustadt Aisch (EDQN)
Neustadt an der Aisch, Bayern, Germany (91413)
(U)
Lat/Lng:49° 35' 16.2" N / 10° 34' 39.61" E
49.587833 / 10.577669
Elevation:1198'ft / 365mMSL
ID / ICAO:EDQN
Runways:1
Longest:09-27
Asphalt 596m / 1,954ft
Nearby Weather14:50 GMT 2017-11-20
Nearby weather at EDDN, Nurnberg located 23.2 nautical miles from EDQN
Altimeter: 30.09
Visibility: statute miles
Wind: 8 knots (from 230°)
Temp: 3°c / 37°f
Humidity: 86.7%

METAR: EDDN 201450Z AUTO 23008KT //// R28/P2000N // ///////// 03/01 Q1019 NOSIG

(Powered by phpweather)
Nearby VORs <50NM
Nearby NDBs
Runway 09 / 27
Dimensions:595.5 x 14.9m 1954' x 49'ft
Surface:Asphalt
Runway 09 [A]Runway 27 [B]
Heading:094°TH 274°TH
Lat:
Lng:
49° 35' 16.88"N
10° 34' 24.66"E
49° 35' 15.52"N
10° 34' 54.56"E
User Notes and Comments
49° 35' 16.2" N / 10° 34' 39.61" E
Distance To
Airport ID:
Nearby Airports
(C) Herzogenaurach 13.3 NM
EDQH E 91°
(U) Rothenburg ob der Tauber 21.1 NM
EDFR SW 229°
(C) Nurnberg 23.2 NM
EDDN ( WX ) ESE 105°
(U) BAMBERG AAF 27.5 NM
ETEJ NNE 33°
(C) BURG FEUERSTEIN 28.6 NM
EDQE ENE 60°
(U) HASSFURT SCHWEINFURT 29.8 NM
EDQT N 355°
(C) NIEDERSTETTEN 30.9 NM
ETHN ( WX ) WSW 244°
VFR Chart
Flight Planning at SkyVector.com